Finlandia — OJPP — position and weather

sailwx.info

Track history (hours):
 
Tides and Currents Weather Stations Pressure Air Temp Water Temp Dewpoint Dewpoint Depression Visibility Wind Speed Wind Dir Waves Ship Positions

Finlandia

Last reported at 2017-Sep-22 02:00 UTC. Time now 2017-Sep-23 12:56 UTC.
Position N 59°51' E 024°47'.

Length 175 m; draft 7 m.

Type: Passenger vessel. MMSI: 230628000.

Date/timePositionNaut miles runAvg speedWind from/ knotsBaromVisibWave heightAir tempDewpointWater temp
2017-Sep-22 02:00N 59°51' E 024°47'4 7.4
2017-Sep-22 01:30N 59°48' E 024°44'4 7.5
2017-Sep-22 01:00N 59°44' E 024°41'4 7.8
2017-Sep-22 00:30N 59°40' E 024°41'4 8.1
2017-Sep-22 00:00N 59°36' E 024°41'4 8.1
2017-Sep-21 23:30N 59°32' E 024°44'4 7.7
2017-Sep-21 23:00N 59°29' E 024°46'2 4.1
2017-Sep-21 22:30N 59°27' E 024°46'0 0.0
2017-Sep-21 21:56N 59°27' E 024°46'0 1.0
2017-Sep-21 21:30N 59°27' E 024°47'816.4
2017-Sep-21 21:00N 59°35' E 024°41'816.9
2017-Sep-21 20:31N 59°43' E 024°46'8 2.3
2017-Sep-21 16:51N 59°51' E 024°48'720.5
2017-Sep-21 16:30N 59°44' E 024°43'1020.3
2017-Sep-21 16:00N 59°34' E 024°42'815.4
2017-Sep-21 15:30N 59°27' E 024°46'0 0.4
2017-Sep-21 14:59N 59°27' E 024°46'0 0.0
2017-Sep-21 14:29N 59°27' E 024°46'5 9.8
2017-Sep-21 14:01N 59°31' E 024°44'1122.4
2017-Sep-21 13:31N 59°42' E 024°42'1823.7
2017-Sep-21 12:45N 59°60' E 024°54'9 3.4
2017-Sep-21 10:06N 59°51' E 024°48'222.5
2017-Sep-21 10:01N 59°49' E 024°47'1122.1
2017-Sep-21 09:31N 59°39' E 024°41'1121.6
2017-Sep-21 09:01N 59°28' E 024°46'1 2.9
2017-Sep-21 08:30N 59°27' E 024°46'0 0.0
2017-Sep-21 07:59N 59°27' E 024°46'2 5.0
2017-Sep-21 07:30N 59°29' E 024°45'918.7
2017-Sep-21 07:00N 59°38' E 024°41'1020.4
2017-Sep-21 06:30N 59°47' E 024°51'1320.6
2017-Sep-21 05:53N 59°59' E 024°57'9 2.3
2017-Sep-21 01:52N 59°51' E 024°50'3 8.1
2017-Sep-21 01:30N 59°48' E 024°49'4 8.1
2017-Sep-21 01:00N 59°44' E 024°47'4 8.7
2017-Sep-21 00:30N 59°40' E 024°44'4 7.8
2017-Sep-21 00:00N 59°36' E 024°41'4 7.7
2017-Sep-20 23:30N 59°33' E 024°44'4 7.9
2017-Sep-20 23:00N 59°29' E 024°46'2 4.4
2017-Sep-20 22:28N 59°27' E 024°46'0 0.0
2017-Sep-20 21:58N 59°27' E 024°46'0 0.6
2017-Sep-20 21:30N 59°27' E 024°46'815.2
2017-Sep-20 21:00N 59°34' E 024°42'815.7
2017-Sep-20 20:31N 59°42' E 024°45'816.3
2017-Sep-20 20:00N 59°49' E 024°50'1 0.5
2017-Sep-20 16:47N 59°51' E 024°50'621.0
2017-Sep-20 16:30N 59°45' E 024°48'1020.4
2017-Sep-20 16:00N 59°35' E 024°42'917.9
2017-Sep-20 15:30N 59°27' E 024°46'0 0.5
2017-Sep-20 14:59N 59°27' E 024°46'5 5.6
2017-Sep-20 14:00N 59°32' E 024°43'918.7
2017-Sep-20 13:30N 59°41' E 024°44'10 3.1
2017-Sep-20 10:07N 59°51' E 024°52'322.9
2017-Sep-20 10:01N 59°48' E 024°51'1122.9
2017-Sep-20 09:31N 59°38' E 024°42'1121.2
2017-Sep-20 09:01N 59°27' E 024°47'1 1.6
2017-Sep-20 08:31N 59°27' E 024°46'0 0.0
2017-Sep-20 07:59N 59°27' E 024°46'3 5.5
2017-Sep-20 07:31N 59°29' E 024°45'1019.2
2017-Sep-20 07:00N 59°39' E 024°41'1020.3
2017-Sep-20 06:31N 59°48' E 024°50'3 0.2
2017-Sep-19 16:47N 59°51' E 024°50'620.9
2017-Sep-19 16:31N 59°45' E 024°47'1020.4
2017-Sep-19 16:00N 59°36' E 024°41'918.1
2017-Sep-19 15:30N 59°27' E 024°47'1 1.1
2017-Sep-19 14:58N 59°27' E 024°46'0 0.0
2017-Sep-19 14:29N 59°27' E 024°46'511.4
2017-Sep-19 14:01N 59°32' E 024°43'917.9
2017-Sep-19 13:30N 59°41' E 024°44'11 3.2
2017-Sep-19 10:06N 59°51' E 024°52'222.2
2017-Sep-19 10:00N 59°49' E 024°52'1122.7
2017-Sep-19 09:30N 59°38' E 024°43'1121.3
2017-Sep-19 09:01N 59°28' E 024°46'1 2.6
2017-Sep-19 08:30N 59°27' E 024°46'0 0.0
2017-Sep-19 08:00N 59°27' E 024°46'4 7.6
2017-Sep-19 07:31N 59°30' E 024°44'918.1
2017-Sep-19 07:01N 59°39' E 024°42'1019.4
2017-Sep-19 06:31N 59°48' E 024°49'3 0.2
2017-Sep-18 16:49N 59°51' E 024°50'621.4
2017-Sep-18 16:31N 59°45' E 024°47'1223.0
2017-Sep-18 16:00N 59°33' E 024°43'713.7
2017-Sep-18 15:30N 59°27' E 024°46'0 0.1
2017-Sep-18 14:59N 59°27' E 024°46'0 0.0
2017-Sep-18 14:30N 59°27' E 024°46'611.4
2017-Sep-18 14:01N 59°32' E 024°43'1019.8
2017-Sep-18 13:31N 59°42' E 024°45'9 2.8
2017-Sep-18 10:16N 59°51' E 024°49'725.5
2017-Sep-18 10:01N 59°45' E 024°43'1225.0
2017-Sep-18 09:31N 59°32' E 024°44'611.4
2017-Sep-18 09:00N 59°27' E 024°46'0 0.0
2017-Sep-18 08:26N 59°27' E 024°46'0 0.0
2017-Sep-18 07:58N 59°27' E 024°46'3 6.4
2017-Sep-18 07:30N 59°30' E 024°45'918.9
2017-Sep-18 07:00N 59°39' E 024°40'1019.3
2017-Sep-18 06:30N 59°48' E 024°47'4 0.3
2017-Sep-17 16:49N 59°51' E 024°50'722.0
2017-Sep-17 16:31N 59°45' E 024°47'1121.0
2017-Sep-17 16:00N 59°34' E 024°43'815.4
2017-Sep-17 15:31N 59°27' E 024°46'0 0.3
2017-Sep-17 14:59N 59°27' E 024°46'0 0.0
2017-Sep-17 14:29N 59°27' E 024°46'4 9.1
2017-Sep-17 14:00N 59°31' E 024°44'1019.8
2017-Sep-17 13:30N 59°41' E 024°44'11 3.3
2017-Sep-17 10:09N 59°51' E 024°52'322.8
2017-Sep-17 10:01N 59°48' E 024°51'1122.9
2017-Sep-17 09:30N 59°37' E 024°42'1020.9
2017-Sep-17 09:01N 59°27' E 024°47'1 1.2
2017-Sep-17 08:30N 59°27' E 024°46'0 0.0
2017-Sep-17 08:00N 59°27' E 024°46'5 9.2
2017-Sep-17 07:30N 59°31' E 024°44'816.7
2017-Sep-17 07:01N 59°39' E 024°42'918.8
2017-Sep-17 06:31N 59°48' E 024°50'3 0.2
2017-Sep-16 16:50N 59°51' E 024°50'721.6
2017-Sep-16 16:31N 59°44' E 024°47'1020.8
2017-Sep-16 16:01N 59°34' E 024°43'714.5
2017-Sep-16 15:30N 59°27' E 024°46'0 0.5
2017-Sep-16 15:00N 59°27' E 024°46'0 0.0
2017-Sep-16 14:30N 59°27' E 024°46'4 9.0
2017-Sep-16 14:01N 59°31' E 024°44'1020.3
2017-Sep-16 13:30N 59°41' E 024°44'11 3.2
2017-Sep-16 10:06N 59°51' E 024°53'223.0
2017-Sep-16 10:01N 59°49' E 024°52'1122.9
2017-Sep-16 09:31N 59°38' E 024°42'1121.7
2017-Sep-16 09:00N 59°28' E 024°47'1 2.1
2017-Sep-16 08:28N 59°27' E 024°46'0 0.0
2017-Sep-16 08:00N 59°27' E 024°46'510.8
2017-Sep-16 07:31N 59°32' E 024°43'917.0
2017-Sep-16 07:01N 59°40' E 024°43'918.9
2017-Sep-16 06:31N 59°49' E 024°51'2 0.5
2017-Sep-16 01:58N 59°51' E 024°51'4 7.9
2017-Sep-16 01:30N 59°47' E 024°49'4 7.7
2017-Sep-16 01:00N 59°44' E 024°47'4 7.4
2017-Sep-16 00:30N 59°40' E 024°44'4 8.3
2017-Sep-16 00:00N 59°36' E 024°41'4 8.6
2017-Sep-15 23:30N 59°32' E 024°44'4 7.8
2017-Sep-15 23:00N 59°29' E 024°46'2 3.9
2017-Sep-15 22:30N 59°27' E 024°46'0 0.0
2017-Sep-15 22:00N 59°27' E 024°46'1 1.5
2017-Sep-15 21:30N 59°27' E 024°47'917.2
2017-Sep-15 21:00N 59°35' E 024°40'1019.6
2017-Sep-15 20:30N 59°44' E 024°47'7 1.8
2017-Sep-15 16:50N 59°51' E 024°48'722.4
2017-Sep-15 16:30N 59°44' E 024°43'1121.0
2017-Sep-15 16:00N 59°34' E 024°43'714.5
2017-Sep-15 15:31N 59°27' E 024°46'0 0.2
2017-Sep-15 15:01N 59°27' E 024°46'0 0.0
2017-Sep-15 14:31N 59°27' E 024°46'510.7
2017-Sep-15 14:01N 59°32' E 024°43'1121.2
2017-Sep-15 13:31N 59°42' E 024°46'9 2.8
2017-Sep-15 10:08N 59°51' E 024°53'323.6
2017-Sep-15 10:01N 59°48' E 024°52'1223.7
2017-Sep-15 09:30N 59°38' E 024°42'1121.2
2017-Sep-15 09:01N 59°27' E 024°47'1 1.6
2017-Sep-15 08:29N 59°27' E 024°46'0 0.0
2017-Sep-15 07:59N 59°27' E 024°46'4 8.1
2017-Sep-15 07:31N 59°30' E 024°44'917.8
2017-Sep-15 07:01N 59°39' E 024°42'1019.4
2017-Sep-15 06:31N 59°48' E 024°50'3 0.7
2017-Sep-15 02:16N 59°51' E 024°50'2 7.6
2017-Sep-15 02:00N 59°49' E 024°49'4 7.5
2017-Sep-15 01:30N 59°45' E 024°47'4 7.3
2017-Sep-15 01:00N 59°42' E 024°46'4 7.2
2017-Sep-15 00:30N 59°39' E 024°43'4 7.2
2017-Sep-15 00:00N 59°35' E 024°42'4 7.9
2017-Sep-14 23:30N 59°31' E 024°45'4 7.7
2017-Sep-14 23:00N 59°28' E 024°47'1 2.0
2017-Sep-14 22:30N 59°27' E 024°46'0 0.0
2017-Sep-14 22:00N 59°27' E 024°46'1 1.0
2017-Sep-14 21:30N 59°27' E 024°47'816.5
2017-Sep-14 21:01N 59°35' E 024°41'918.6
2017-Sep-14 20:31N 59°43' E 024°46'8 2.0
2017-Sep-14 16:49N 59°51' E 024°49'721.6
2017-Sep-14 16:30N 59°45' E 024°44'1020.7
2017-Sep-14 16:01N 59°35' E 024°42'815.9
2017-Sep-14 15:30N 59°27' E 024°46'0 0.6
2017-Sep-14 15:00N 59°27' E 024°46'0 0.0
2017-Sep-14 14:30N 59°27' E 024°46'611.2
2017-Sep-14 14:01N 59°32' E 024°43'1122.2
2017-Sep-14 13:31N 59°43' E 024°46'8 2.4
2017-Sep-14 10:05N 59°51' E 024°51'225.1
2017-Sep-14 10:01N 59°49' E 024°51'1224.6
2017-Sep-14 09:31N 59°38' E 024°42'1121.7
2017-Sep-14 09:00N 59°27' E 024°47'1 1.3
2017-Sep-14 08:28N 59°27' E 024°46'0 0.0
2017-Sep-14 08:00N 59°27' E 024°46'5 9.2
2017-Sep-14 07:31N 59°31' E 024°44'917.4
2017-Sep-14 07:01N 59°40' E 024°43'1019.4
2017-Sep-14 06:30N 59°49' E 024°50'5 1.1
2017-Sep-14 02:23N 59°54' E 024°51'3 8.2
2017-Sep-14 02:00N 59°51' E 024°49'4 8.4
2017-Sep-14 01:31N 59°47' E 024°48'4 8.6
2017-Sep-14 01:00N 59°42' E 024°46'4 7.8
2017-Sep-14 00:30N 59°39' E 024°43'4 7.5
2017-Sep-14 00:01N 59°35' E 024°42'4 8.2
2017-Sep-13 23:30N 59°31' E 024°45'4 8.0
2017-Sep-13 23:01N 59°27' E 024°47'1 1.7
2017-Sep-13 22:30N 59°27' E 024°46'0 0.0
2017-Sep-13 22:00N 59°27' E 024°46'0 0.9
2017-Sep-13 21:30N 59°27' E 024°47'715.0
2017-Sep-13 21:01N 59°34' E 024°41'816.6
2017-Sep-13 20:31N 59°42' E 024°45'917.6
2017-Sep-13 20:01N 59°50' E 024°50'6 1.9
2017-Sep-13 17:05N 59°56' E 024°53'422.5
2017-Sep-13 16:55N 59°53' E 024°50'1023.1
2017-Sep-13 16:31N 59°44' E 024°43'1122.7
2017-Sep-13 16:01N 59°32' E 024°44'611.4
2017-Sep-13 15:30N 59°27' E 024°46'0 0.0
2017-Sep-13 15:01N 59°27' E 024°46'0 0.0
2017-Sep-13 14:31N 59°27' E 024°46'4 8.5
2017-Sep-13 14:01N 59°31' E 024°44'1020.9
2017-Sep-13 13:30N 59°41' E 024°44'1222.9
2017-Sep-13 12:59N 59°53' E 024°51'1 0.3
2017-Sep-13 10:12N 59°52' E 024°50'525.2
2017-Sep-13 10:01N 59°48' E 024°46'1223.5
2017-Sep-13 09:31N 59°36' E 024°41'1019.1
2017-Sep-13 09:01N 59°27' E 024°47'1 1.0
2017-Sep-13 08:29N 59°27' E 024°46'0 0.0
2017-Sep-13 07:59N 59°27' E 024°46'4 8.7
2017-Sep-13 07:31N 59°31' E 024°44'917.6
2017-Sep-13 07:01N 59°39' E 024°42'918.9
2017-Sep-13 06:31N 59°48' E 024°49'7 0.5
2017-Sep-12 17:02N 59°55' E 024°52'321.1
2017-Sep-12 16:53N 59°52' E 024°50'820.6
2017-Sep-12 16:31N 59°45' E 024°44'1020.0
2017-Sep-12 16:01N 59°35' E 024°41'917.6
2017-Sep-12 15:30N 59°27' E 024°47'1 1.0
2017-Sep-12 14:59N 59°27' E 024°46'0 0.0
2017-Sep-12 14:29N 59°27' E 024°46'510.7
2017-Sep-12 14:01N 59°32' E 024°43'1122.2
2017-Sep-12 13:31N 59°43' E 024°46'1224.1
2017-Sep-12 13:00N 59°54' E 024°53'3 1.1
2017-Sep-12 10:10N 59°51' E 024°52'426.9
2017-Sep-12 10:00N 59°47' E 024°51'1224.1
2017-Sep-12 09:30N 59°36' E 024°41'918.5
2017-Sep-12 09:00N 59°27' E 024°47'1 1.0
2017-Sep-12 08:30N 59°27' E 024°46'0 0.0
2017-Sep-12 08:00N 59°27' E 024°46'4 8.2
2017-Sep-12 07:30N 59°31' E 024°44'918.5
2017-Sep-12 07:00N 59°40' E 024°43'1019.4
2017-Sep-12 06:30N 59°49' E 024°50'  
Track history (hours):
 
Tides and Currents Weather Stations Pressure Air Temp Water Temp Dewpoint Dewpoint Depression Visibility Wind Speed Wind Dir Waves Ship Positions

Finlandia

Last reported at 2017-Sep-22 02:00 UTC. Time now 2017-Sep-23 12:56 UTC.
Position N 59°51' E 024°47'.

Length 175 m; draft 7 m.

Type: Passenger vessel. MMSI: 230628000.

Date/timePositionNaut miles runAvg speedWind from/ knotsBaromVisibWave heightAir tempDewpointWater temp
2017-Sep-22 02:00N 59°51' E 024°47'4 7.4
2017-Sep-22 01:30N 59°48' E 024°44'4 7.5
2017-Sep-22 01:00N 59°44' E 024°41'4 7.8
2017-Sep-22 00:30N 59°40' E 024°41'4 8.1
2017-Sep-22 00:00N 59°36' E 024°41'4 8.1
2017-Sep-21 23:30N 59°32' E 024°44'4 7.7
2017-Sep-21 23:00N 59°29' E 024°46'2 4.1
2017-Sep-21 22:30N 59°27' E 024°46'0 0.0
2017-Sep-21 21:56N 59°27' E 024°46'0 1.0
2017-Sep-21 21:30N 59°27' E 024°47'816.4
2017-Sep-21 21:00N 59°35' E 024°41'816.9
2017-Sep-21 20:31N 59°43' E 024°46'8 2.3
2017-Sep-21 16:51N 59°51' E 024°48'720.5
2017-Sep-21 16:30N 59°44' E 024°43'1020.3
2017-Sep-21 16:00N 59°34' E 024°42'815.4
2017-Sep-21 15:30N 59°27' E 024°46'0 0.4
2017-Sep-21 14:59N 59°27' E 024°46'0 0.0
2017-Sep-21 14:29N 59°27' E 024°46'5 9.8
2017-Sep-21 14:01N 59°31' E 024°44'1122.4
2017-Sep-21 13:31N 59°42' E 024°42'1823.7
2017-Sep-21 12:45N 59°60' E 024°54'9 3.4
2017-Sep-21 10:06N 59°51' E 024°48'222.5
2017-Sep-21 10:01N 59°49' E 024°47'1122.1
2017-Sep-21 09:31N 59°39' E 024°41'1121.6
2017-Sep-21 09:01N 59°28' E 024°46'1 2.9
2017-Sep-21 08:30N 59°27' E 024°46'0 0.0
2017-Sep-21 07:59N 59°27' E 024°46'2 5.0
2017-Sep-21 07:30N 59°29' E 024°45'918.7
2017-Sep-21 07:00N 59°38' E 024°41'1020.4
2017-Sep-21 06:30N 59°47' E 024°51'1320.6
2017-Sep-21 05:53N 59°59' E 024°57'9 2.3
2017-Sep-21 01:52N 59°51' E 024°50'3 8.1
2017-Sep-21 01:30N 59°48' E 024°49'4 8.1
2017-Sep-21 01:00N 59°44' E 024°47'4 8.7
2017-Sep-21 00:30N 59°40' E 024°44'4 7.8
2017-Sep-21 00:00N 59°36' E 024°41'4 7.7
2017-Sep-20 23:30N 59°33' E 024°44'4 7.9
2017-Sep-20 23:00N 59°29' E 024°46'2 4.4
2017-Sep-20 22:28N 59°27' E 024°46'0 0.0
2017-Sep-20 21:58N 59°27' E 024°46'0 0.6
2017-Sep-20 21:30N 59°27' E 024°46'815.2
2017-Sep-20 21:00N 59°34' E 024°42'815.7
2017-Sep-20 20:31N 59°42' E 024°45'816.3
2017-Sep-20 20:00N 59°49' E 024°50'1 0.5
2017-Sep-20 16:47N 59°51' E 024°50'621.0
2017-Sep-20 16:30N 59°45' E 024°48'1020.4
2017-Sep-20 16:00N 59°35' E 024°42'917.9
2017-Sep-20 15:30N 59°27' E 024°46'0 0.5
2017-Sep-20 14:59N 59°27' E 024°46'5 5.6
2017-Sep-20 14:00N 59°32' E 024°43'918.7
2017-Sep-20 13:30N 59°41' E 024°44'10 3.1
2017-Sep-20 10:07N 59°51' E 024°52'322.9
2017-Sep-20 10:01N 59°48' E 024°51'1122.9
2017-Sep-20 09:31N 59°38' E 024°42'1121.2
2017-Sep-20 09:01N 59°27' E 024°47'1 1.6
2017-Sep-20 08:31N 59°27' E 024°46'0 0.0
2017-Sep-20 07:59N 59°27' E 024°46'3 5.5
2017-Sep-20 07:31N 59°29' E 024°45'1019.2
2017-Sep-20 07:00N 59°39' E 024°41'1020.3
2017-Sep-20 06:31N 59°48' E 024°50'3 0.2
2017-Sep-19 16:47N 59°51' E 024°50'620.9
2017-Sep-19 16:31N 59°45' E 024°47'1020.4
2017-Sep-19 16:00N 59°36' E 024°41'918.1
2017-Sep-19 15:30N 59°27' E 024°47'1 1.1
2017-Sep-19 14:58N 59°27' E 024°46'0 0.0
2017-Sep-19 14:29N 59°27' E 024°46'511.4
2017-Sep-19 14:01N 59°32' E 024°43'917.9
2017-Sep-19 13:30N 59°41' E 024°44'11 3.2
2017-Sep-19 10:06N 59°51' E 024°52'222.2
2017-Sep-19 10:00N 59°49' E 024°52'1122.7
2017-Sep-19 09:30N 59°38' E 024°43'1121.3
2017-Sep-19 09:01N 59°28' E 024°46'1 2.6
2017-Sep-19 08:30N 59°27' E 024°46'0 0.0
2017-Sep-19 08:00N 59°27' E 024°46'4 7.6
2017-Sep-19 07:31N 59°30' E 024°44'918.1
2017-Sep-19 07:01N 59°39' E 024°42'1019.4
2017-Sep-19 06:31N 59°48' E 024°49'3 0.2
2017-Sep-18 16:49N 59°51' E 024°50'621.4
2017-Sep-18 16:31N 59°45' E 024°47'1223.0
2017-Sep-18 16:00N 59°33' E 024°43'713.7
2017-Sep-18 15:30N 59°27' E 024°46'0 0.1
2017-Sep-18 14:59N 59°27' E 024°46'0 0.0
2017-Sep-18 14:30N 59°27' E 024°46'611.4
2017-Sep-18 14:01N 59°32' E 024°43'1019.8
2017-Sep-18 13:31N 59°42' E 024°45'9 2.8
2017-Sep-18 10:16N 59°51' E 024°49'725.5
2017-Sep-18 10:01N 59°45' E 024°43'1225.0
2017-Sep-18 09:31N 59°32' E 024°44'611.4
2017-Sep-18 09:00N 59°27' E 024°46'0 0.0
2017-Sep-18 08:26N 59°27' E 024°46'0 0.0
2017-Sep-18 07:58N 59°27' E 024°46'3 6.4
2017-Sep-18 07:30N 59°30' E 024°45'918.9
2017-Sep-18 07:00N 59°39' E 024°40'1019.3
2017-Sep-18 06:30N 59°48' E 024°47'4 0.3
2017-Sep-17 16:49N 59°51' E 024°50'722.0
2017-Sep-17 16:31N 59°45' E 024°47'1121.0
2017-Sep-17 16:00N 59°34' E 024°43'815.4
2017-Sep-17 15:31N 59°27' E 024°46'0 0.3
2017-Sep-17 14:59N 59°27' E 024°46'0 0.0
2017-Sep-17 14:29N 59°27' E 024°46'4 9.1
2017-Sep-17 14:00N 59°31' E 024°44'1019.8
2017-Sep-17 13:30N 59°41' E 024°44'11 3.3
2017-Sep-17 10:09N 59°51' E 024°52'322.8
2017-Sep-17 10:01N 59°48' E 024°51'1122.9
2017-Sep-17 09:30N 59°37' E 024°42'1020.9
2017-Sep-17 09:01N 59°27' E 024°47'1 1.2
2017-Sep-17 08:30N 59°27' E 024°46'0 0.0
2017-Sep-17 08:00N 59°27' E 024°46'5 9.2
2017-Sep-17 07:30N 59°31' E 024°44'816.7
2017-Sep-17 07:01N 59°39' E 024°42'918.8
2017-Sep-17 06:31N 59°48' E 024°50'3 0.2
2017-Sep-16 16:50N 59°51' E 024°50'721.6
2017-Sep-16 16:31N 59°44' E 024°47'1020.8
2017-Sep-16 16:01N 59°34' E 024°43'714.5
2017-Sep-16 15:30N 59°27' E 024°46'0 0.5
2017-Sep-16 15:00N 59°27' E 024°46'0 0.0
2017-Sep-16 14:30N 59°27' E 024°46'4 9.0
2017-Sep-16 14:01N 59°31' E 024°44'1020.3
2017-Sep-16 13:30N 59°41' E 024°44'11 3.2
2017-Sep-16 10:06N 59°51' E 024°53'223.0
2017-Sep-16 10:01N 59°49' E 024°52'1122.9
2017-Sep-16 09:31N 59°38' E 024°42'1121.7
2017-Sep-16 09:00N 59°28' E 024°47'1 2.1
2017-Sep-16 08:28N 59°27' E 024°46'0 0.0
2017-Sep-16 08:00N 59°27' E 024°46'510.8
2017-Sep-16 07:31N 59°32' E 024°43'917.0
2017-Sep-16 07:01N 59°40' E 024°43'918.9
2017-Sep-16 06:31N 59°49' E 024°51'2 0.5
2017-Sep-16 01:58N 59°51' E 024°51'4 7.9
2017-Sep-16 01:30N 59°47' E 024°49'4 7.7
2017-Sep-16 01:00N 59°44' E 024°47'4 7.4
2017-Sep-16 00:30N 59°40' E 024°44'4 8.3
2017-Sep-16 00:00N 59°36' E 024°41'4 8.6
2017-Sep-15 23:30N 59°32' E 024°44'4 7.8
2017-Sep-15 23:00N 59°29' E 024°46'2 3.9
2017-Sep-15 22:30N 59°27' E 024°46'0 0.0
2017-Sep-15 22:00N 59°27' E 024°46'1 1.5
2017-Sep-15 21:30N 59°27' E 024°47'917.2
2017-Sep-15 21:00N 59°35' E 024°40'1019.6
2017-Sep-15 20:30N 59°44' E 024°47'7 1.8
2017-Sep-15 16:50N 59°51' E 024°48'722.4
2017-Sep-15 16:30N 59°44' E 024°43'1121.0
2017-Sep-15 16:00N 59°34' E 024°43'714.5
2017-Sep-15 15:31N 59°27' E 024°46'0 0.2
2017-Sep-15 15:01N 59°27' E 024°46'0 0.0
2017-Sep-15 14:31N 59°27' E 024°46'510.7
2017-Sep-15 14:01N 59°32' E 024°43'1121.2
2017-Sep-15 13:31N 59°42' E 024°46'9 2.8
2017-Sep-15 10:08N 59°51' E 024°53'323.6
2017-Sep-15 10:01N 59°48' E 024°52'1223.7
2017-Sep-15 09:30N 59°38' E 024°42'1121.2
2017-Sep-15 09:01N 59°27' E 024°47'1 1.6
2017-Sep-15 08:29N 59°27' E 024°46'0 0.0
2017-Sep-15 07:59N 59°27' E 024°46'4 8.1
2017-Sep-15 07:31N 59°30' E 024°44'917.8
2017-Sep-15 07:01N 59°39' E 024°42'1019.4
2017-Sep-15 06:31N 59°48' E 024°50'3 0.7
2017-Sep-15 02:16N 59°51' E 024°50'2 7.6
2017-Sep-15 02:00N 59°49' E 024°49'4 7.5
2017-Sep-15 01:30N 59°45' E 024°47'4 7.3
2017-Sep-15 01:00N 59°42' E 024°46'4 7.2
2017-Sep-15 00:30N 59°39' E 024°43'4 7.2
2017-Sep-15 00:00N 59°35' E 024°42'4 7.9
2017-Sep-14 23:30N 59°31' E 024°45'4 7.7
2017-Sep-14 23:00N 59°28' E 024°47'1 2.0
2017-Sep-14 22:30N 59°27' E 024°46'0 0.0
2017-Sep-14 22:00N 59°27' E 024°46'1 1.0
2017-Sep-14 21:30N 59°27' E 024°47'816.5
2017-Sep-14 21:01N 59°35' E 024°41'918.6
2017-Sep-14 20:31N 59°43' E 024°46'8 2.0
2017-Sep-14 16:49N 59°51' E 024°49'721.6
2017-Sep-14 16:30N 59°45' E 024°44'1020.7
2017-Sep-14 16:01N 59°35' E 024°42'815.9
2017-Sep-14 15:30N 59°27' E 024°46'0 0.6
2017-Sep-14 15:00N 59°27' E 024°46'0 0.0
2017-Sep-14 14:30N 59°27' E 024°46'611.2
2017-Sep-14 14:01N 59°32' E 024°43'1122.2
2017-Sep-14 13:31N 59°43' E 024°46'8 2.4
2017-Sep-14 10:05N 59°51' E 024°51'225.1
2017-Sep-14 10:01N 59°49' E 024°51'1224.6
2017-Sep-14 09:31N 59°38' E 024°42'1121.7
2017-Sep-14 09:00N 59°27' E 024°47'1 1.3
2017-Sep-14 08:28N 59°27' E 024°46'0 0.0
2017-Sep-14 08:00N 59°27' E 024°46'5 9.2
2017-Sep-14 07:31N 59°31' E 024°44'917.4
2017-Sep-14 07:01N 59°40' E 024°43'1019.4
2017-Sep-14 06:30N 59°49' E 024°50'5 1.1
2017-Sep-14 02:23N 59°54' E 024°51'3 8.2
2017-Sep-14 02:00N 59°51' E 024°49'4 8.4
2017-Sep-14 01:31N 59°47' E 024°48'4 8.6
2017-Sep-14 01:00N 59°42' E 024°46'4 7.8
2017-Sep-14 00:30N 59°39' E 024°43'4 7.5
2017-Sep-14 00:01N 59°35' E 024°42'4 8.2
2017-Sep-13 23:30N 59°31' E 024°45'4 8.0
2017-Sep-13 23:01N 59°27' E 024°47'1 1.7
2017-Sep-13 22:30N 59°27' E 024°46'0 0.0
2017-Sep-13 22:00N 59°27' E 024°46'0 0.9
2017-Sep-13 21:30N 59°27' E 024°47'715.0
2017-Sep-13 21:01N 59°34' E 024°41'816.6
2017-Sep-13 20:31N 59°42' E 024°45'917.6
2017-Sep-13 20:01N 59°50' E 024°50'6 1.9
2017-Sep-13 17:05N 59°56' E 024°53'422.5
2017-Sep-13 16:55N 59°53' E 024°50'1023.1
2017-Sep-13 16:31N 59°44' E 024°43'1122.7
2017-Sep-13 16:01N 59°32' E 024°44'611.4
2017-Sep-13 15:30N 59°27' E 024°46'0 0.0
2017-Sep-13 15:01N 59°27' E 024°46'0 0.0
2017-Sep-13 14:31N 59°27' E 024°46'4 8.5
2017-Sep-13 14:01N 59°31' E 024°44'1020.9
2017-Sep-13 13:30N 59°41' E 024°44'1222.9
2017-Sep-13 12:59N 59°53' E 024°51'1 0.3
2017-Sep-13 10:12N 59°52' E 024°50'525.2
2017-Sep-13 10:01N 59°48' E 024°46'1223.5
2017-Sep-13 09:31N 59°36' E 024°41'1019.1
2017-Sep-13 09:01N 59°27' E 024°47'1 1.0
2017-Sep-13 08:29N 59°27' E 024°46'0 0.0
2017-Sep-13 07:59N 59°27' E 024°46'4 8.7
2017-Sep-13 07:31N 59°31' E 024°44'917.6
2017-Sep-13 07:01N 59°39' E 024°42'918.9
2017-Sep-13 06:31N 59°48' E 024°49'7 0.5
2017-Sep-12 17:02N 59°55' E 024°52'321.1
2017-Sep-12 16:53N 59°52' E 024°50'820.6
2017-Sep-12 16:31N 59°45' E 024°44'1020.0
2017-Sep-12 16:01N 59°35' E 024°41'917.6
2017-Sep-12 15:30N 59°27' E 024°47'1 1.0
2017-Sep-12 14:59N 59°27' E 024°46'0 0.0
2017-Sep-12 14:29N 59°27' E 024°46'510.7
2017-Sep-12 14:01N 59°32' E 024°43'1122.2
2017-Sep-12 13:31N 59°43' E 024°46'1224.1
2017-Sep-12 13:00N 59°54' E 024°53'3 1.1
2017-Sep-12 10:10N 59°51' E 024°52'426.9
2017-Sep-12 10:00N 59°47' E 024°51'1224.1
2017-Sep-12 09:30N 59°36' E 024°41'918.5
2017-Sep-12 09:00N 59°27' E 024°47'1 1.0
2017-Sep-12 08:30N 59°27' E 024°46'0 0.0
2017-Sep-12 08:00N 59°27' E 024°46'4 8.2
2017-Sep-12 07:30N 59°31' E 024°44'918.5
2017-Sep-12 07:00N 59°40' E 024°43'1019.4
2017-Sep-12 06:30N 59°49' E 024°50'  

Dump ship's entire track history